Time;durP1;ratioP1;P1;durP2;ratioP2;P2;SDS_P1;SDS_P2;PMS_P1;PMS_P2;Temp;Humidity;BMP_temperature;BMP_pressure;BME280_temperature;BME280_humidity;BME280_pressure;Samples;Min_cycle;Max_cycle;Signal;HPM_P1;HPM_P2
2023/06/26 00:01:07;;;;;;;8.03;6.63;;;15.40;99.90;;;;;;8266679;28;20238;-64
2023/06/26 00:05:08;;;;;;;8.40;7.20;;;15.40;99.90;;;;;;8262999;28;20258;-65
2023/06/26 00:09:09;;;;;;;9.47;7.47;;;15.30;1.00;;;;;;8276868;28;20195;-65
2023/06/26 00:13:12;;;;;;;7.87;7.10;;;15.20;33.90;;;;;;8270200;28;20187;-65
2023/06/26 00:17:13;;;;;;;7.23;6.53;;;15.10;99.90;;;;;;8272391;28;20195;-65
2023/06/26 00:21:13;;;;;;;8.70;7.17;;;15.00;99.90;;;;;;8266218;28;20242;-66
2023/06/26 00:25:14;;;;;;;8.03;7.23;;;15.00;1.00;;;;;;8272394;28;20215;-66
2023/06/26 00:29:16;;;;;;;7.37;6.60;;;14.90;99.90;;;;;;8267645;28;20194;-64
2023/06/26 00:33:17;;;;;;;6.57;5.97;;;14.80;99.90;;;;;;8269115;28;20191;-66
2023/06/26 00:37:17;;;;;;;7.27;6.47;;;14.80;99.90;;;;;;8269763;28;20201;-65
2023/06/26 00:41:20;;;;;;;7.30;6.60;;;14.70;99.90;;;;;;8271557;28;20240;-64
2023/06/26 00:45:20;;;;;;;7.27;6.57;;;14.60;1.00;;;;;;8268858;28;20203;-65
2023/06/26 00:49:21;;;;;;;8.20;6.77;;;14.50;17.40;;;;;;8272817;28;20187;-65
2023/06/26 00:53:22;;;;;;;7.70;6.87;;;14.50;1.00;;;;;;8270273;28;20198;-64
2023/06/26 00:57:24;;;;;;;9.47;7.67;;;14.40;52.70;;;;;;8269687;28;20192;-63
2023/06/26 01:01:25;;;;;;;7.63;6.80;;;14.40;1.00;;;;;;8269799;28;20215;-64
2023/06/26 01:05:28;;;;;;;8.77;7.87;;;14.40;99.90;;;;;;8269300;28;20207;-65
2023/06/26 01:09:29;;;;;;;6.97;6.27;;;14.30;99.90;;;;;;8269597;28;20188;-65
2023/06/26 01:13:31;;;;;;;8.00;6.73;;;14.30;99.90;;;;;;8270483;28;20230;-65
2023/06/26 01:17:32;;;;;;;8.20;7.37;;;14.20;1.00;;;;;;8271013;28;20385;-65
2023/06/26 01:21:35;;;;;;;7.03;6.37;;;14.10;99.90;;;;;;8270280;28;20306;-64
2023/06/26 01:25:59;;;;;;;7.20;6.47;;;14.10;99.90;;;;;;8274667;28;20218;-65
2023/06/26 01:30:04;;;;;;;8.23;7.13;;;14.00;99.90;;;;;;8270543;28;20189;-66
2023/06/26 01:34:05;;;;;;;7.70;6.90;;;14.00;99.90;;;;;;8272709;28;20187;-66
2023/06/26 01:38:13;;;;;;;8.17;7.07;;;14.00;99.90;;;;;;8271047;28;20190;-66
2023/06/26 01:42:14;;;;;;;7.93;6.83;;;14.00;99.90;;;;;;8267385;28;20230;-67
2023/06/26 01:47:00;;;;;;;10.07;7.80;;;14.00;99.90;;;;;;8268471;28;20179;-66
2023/06/26 01:51:06;;;;;;;8.47;7.57;;;14.10;99.90;;;;;;8270947;28;20206;-66
2023/06/26 01:55:16;;;;;;;8.27;7.27;;;14.10;99.90;;;;;;8268879;28;20175;-66
2023/06/26 01:59:19;;;;;;;8.03;7.23;;;14.10;99.90;;;;;;8266069;28;20184;-66
2023/06/26 02:03:20;;;;;;;7.50;6.70;;;14.10;99.90;;;;;;8268447;28;20212;-66
2023/06/26 02:07:21;;;;;;;7.23;6.53;;;14.10;99.90;;;;;;8269793;28;20183;-66
2023/06/26 02:11:22;;;;;;;7.47;6.63;;;14.20;99.90;;;;;;8267208;28;20199;-66
2023/06/26 02:15:23;;;;;;;7.53;6.60;;;14.30;99.90;;;;;;8263116;28;20270;-66
2023/06/26 02:19:24;;;;;;;7.23;6.53;;;14.30;99.90;;;;;;8281332;28;20195;-65
2023/06/26 02:23:26;;;;;;;6.77;6.17;;;14.30;99.90;;;;;;8270261;28;20207;-66
2023/06/26 02:27:27;;;;;;;7.57;6.80;;;14.40;99.90;;;;;;8263962;28;20178;-66
2023/06/26 02:31:27;;;;;;;6.77;6.17;;;14.40;99.90;;;;;;8264692;28;20194;-67
2023/06/26 02:35:28;;;;;;;6.43;5.83;;;14.50;99.90;;;;;;8262371;28;20233;-67
2023/06/26 02:39:29;;;;;;;6.90;6.30;;;14.50;99.90;;;;;;8267864;28;20187;-67
2023/06/26 02:43:30;;;;;;;7.43;6.43;;;14.60;99.90;;;;;;8266104;28;20222;-66
2023/06/26 02:47:31;;;;;;;6.90;6.20;;;14.70;99.90;;;;;;8268698;28;20183;-66
2023/06/26 02:51:35;;;;;;;9.20;6.97;;;14.80;99.90;;;;;;8264105;28;20199;-66
2023/06/26 02:55:36;;;;;;;6.43;5.73;;;15.00;99.90;;;;;;8265852;28;20307;-65
2023/06/26 02:59:39;;;;;;;6.57;5.97;;;15.10;99.90;;;;;;8261168;28;20210;-66
2023/06/26 03:03:41;;;;;;;7.57;6.77;;;15.20;99.90;;;;;;8263239;28;20314;-67
2023/06/26 03:07:42;;;;;;;7.30;6.60;;;15.40;99.90;;;;;;8264866;28;20211;-67
2023/06/26 03:11:43;;;;;;;6.70;6.10;;;15.50;99.90;;;;;;8267473;28;20191;-68
2023/06/26 03:15:44;;;;;;;7.27;6.53;;;15.60;99.90;;;;;;8267598;28;20203;-66
2023/06/26 03:19:45;;;;;;;10.07;6.13;;;15.70;99.90;;;;;;8262145;28;20194;-67
2023/06/26 03:23:46;;;;;;;7.73;6.13;;;15.80;99.90;;;;;;8261888;28;20211;-66
2023/06/26 03:27:47;;;;;;;6.70;6.10;;;15.90;99.90;;;;;;8264372;28;20218;-66
2023/06/26 03:31:48;;;;;;;8.33;7.53;;;16.00;99.90;;;;;;8266476;28;20183;-66
2023/06/26 03:35:50;;;;;;;6.73;5.53;;;16.00;99.90;;;;;;8265541;28;20274;-66
2023/06/26 03:39:50;;;;;;;6.33;5.73;;;16.10;99.90;;;;;;8265575;28;20250;-67
2023/06/26 03:43:52;;;;;;;6.60;5.80;;;16.10;99.90;;;;;;8275621;28;20215;-66
2023/06/26 03:47:52;;;;;;;7.10;6.17;;;16.30;99.90;;;;;;8272638;28;20203;-67
2023/06/26 03:51:54;;;;;;;6.50;5.90;;;16.30;99.90;;;;;;8269688;28;20198;-67
2023/06/26 03:55:55;;;;;;;8.97;6.47;;;16.40;99.90;;;;;;8272256;28;20195;-67
2023/06/26 03:59:56;;;;;;;7.07;6.27;;;16.60;99.90;;;;;;8269612;28;20187;-67
2023/06/26 04:03:56;;;;;;;5.97;5.33;;;16.80;99.90;;;;;;8272633;28;20251;-67
2023/06/26 04:07:57;;;;;;;10.87;5.80;;;16.90;1.00;;;;;;8271039;28;20252;-67
2023/06/26 04:12:02;;;;;;;6.60;5.37;;;17.20;99.90;;;;;;8274006;28;20187;-66
2023/06/26 04:16:03;;;;;;;5.67;5.17;;;17.40;99.90;;;;;;8273014;28;20198;-66
2023/06/26 04:20:08;;;;;;;5.63;4.77;;;17.60;31.60;;;;;;8275749;28;20179;-67
2023/06/26 04:24:09;;;;;;;5.43;4.93;;;17.70;1.00;;;;;;8266207;28;20221;-67
2023/06/26 04:28:11;;;;;;;6.87;5.30;;;17.80;1.00;;;;;;8269656;28;20183;-69
2023/06/26 04:32:19;;;;;;;6.97;5.00;;;18.00;99.90;;;;;;8266128;28;20194;-69
2023/06/26 04:36:20;;;;;;;5.37;4.77;;;18.10;99.90;;;;;;8275401;28;20236;-67
2023/06/26 04:40:21;;;;;;;6.03;5.43;;;18.30;1.00;;;;;;8267148;28;20208;-66
2023/06/26 04:44:22;;;;;;;6.20;5.60;;;18.50;1.00;;;;;;8265101;28;20272;-67
2023/06/26 04:48:23;;;;;;;6.70;6.00;;;18.70;99.90;;;;;;8280705;28;20199;-66
2023/06/26 04:52:24;;;;;;;12.37;8.90;;;18.90;99.90;;;;;;8273867;28;20196;-67
2023/06/26 04:56:25;;;;;;;11.30;8.03;;;19.10;99.90;;;;;;8264810;28;20207;-67
2023/06/26 05:00:25;;;;;;;7.90;7.10;;;19.20;99.90;;;;;;8267605;28;20286;-67
2023/06/26 05:04:26;;;;;;;7.93;7.13;;;19.30;99.90;;;;;;8270004;28;20207;-67
2023/06/26 05:08:27;;;;;;;8.17;7.13;;;19.40;56.40;;;;;;8269124;28;20215;-67
2023/06/26 05:12:28;;;;;;;12.03;9.73;;;19.50;35.20;;;;;;8266709;28;20187;-67
2023/06/26 05:16:29;;;;;;;13.80;9.70;;;19.60;1.00;;;;;;8265658;28;20283;-67
2023/06/26 05:20:30;;;;;;;12.77;10.10;;;19.80;1.00;;;;;;8265870;28;20211;-67
2023/06/26 05:24:38;;;;;;;10.63;8.30;;;19.90;1.00;;;;;;8269858;28;20342;-67
2023/06/26 05:28:39;;;;;;;8.43;6.83;;;20.00;1.00;;;;;;8264912;28;20195;-67
2023/06/26 05:32:41;;;;;;;6.80;6.10;;;20.20;1.00;;;;;;8268208;28;20198;-69
2023/06/26 05:36:43;;;;;;;8.53;7.73;;;20.40;1.00;;;;;;8267714;28;20191;-67
2023/06/26 05:40:44;;;;;;;8.30;6.97;;;20.60;1.00;;;;;;8269931;28;20214;-67
2023/06/26 05:44:45;;;;;;;6.60;5.33;;;20.90;1.00;;;;;;8266585;28;20184;-66
2023/06/26 05:48:47;;;;;;;7.30;4.93;;;21.10;1.00;;;;;;8269060;28;20183;-67
2023/06/26 05:52:48;;;;;;;7.90;4.70;;;21.40;1.00;;;;;;8270818;28;20187;-66
2023/06/26 05:56:55;;;;;;;5.80;4.40;;;21.60;1.00;;;;;;8272320;28;20191;-67
2023/06/26 06:00:56;;;;;;;8.47;4.93;;;21.80;1.00;;;;;;8271968;28;20210;-66
2023/06/26 06:04:57;;;;;;;6.90;4.17;;;22.10;1.00;;;;;;8269629;28;20213;-68
2023/06/26 06:08:58;;;;;;;5.97;4.87;;;22.30;1.00;;;;;;8265931;28;20268;-66
2023/06/26 06:12:59;;;;;;;4.33;3.93;;;22.60;1.00;;;;;;8266767;28;20289;-66
2023/06/26 06:17:01;;;;;;;4.90;4.33;;;22.90;1.00;;;;;;8268650;28;20191;-66
2023/06/26 06:21:02;;;;;;;5.80;4.00;;;23.20;1.00;;;;;;8279226;28;20211;-66
2023/06/26 06:25:03;;;;;;;5.07;3.97;;;23.50;99.90;;;;;;8263177;28;20191;-67
2023/06/26 06:29:04;;;;;;;4.13;3.67;;;23.70;99.90;;;;;;8263700;28;20190;-67
2023/06/26 06:33:05;;;;;;;5.27;4.20;;;23.90;99.90;;;;;;8270471;28;20184;-67
2023/06/26 06:37:07;;;;;;;3.90;3.60;;;24.20;99.90;;;;;;8270845;28;20191;-66
2023/06/26 06:41:10;;;;;;;4.37;3.67;;;24.30;99.90;;;;;;8266188;28;20282;-68
2023/06/26 06:45:11;;;;;;;5.63;4.10;;;24.60;99.90;;;;;;8269245;28;20195;-68
2023/06/26 06:49:12;;;;;;;4.20;3.80;;;24.90;99.90;;;;;;8263906;28;20223;-67
2023/06/26 06:53:13;;;;;;;4.18;3.72;;;25.10;99.90;;;;;;8267319;28;20195;-67
2023/06/26 06:57:15;;;;;;;6.15;4.20;;;25.30;99.90;;;;;;8266190;28;20251;-67
2023/06/26 07:01:16;;;;;;;4.35;3.58;;;25.40;99.90;;;;;;8268983;28;20200;-70
2023/06/26 07:05:18;;;;;;;7.68;3.80;;;25.30;99.90;;;;;;8264502;28;20207;-68
2023/06/26 07:09:19;;;;;;;4.80;3.92;;;25.30;99.90;;;;;;8262477;28;20191;-68
2023/06/26 07:13:20;;;;;;;4.22;3.70;;;25.30;99.90;;;;;;8265708;28;20199;-67
2023/06/26 07:17:23;;;;;;;4.75;3.80;;;25.20;99.90;;;;;;8270078;28;20179;-68
2023/06/26 07:21:25;;;;;;;3.80;3.50;;;25.10;99.90;;;;;;8274427;28;20215;-70
2023/06/26 07:25:26;;;;;;;4.10;3.70;;;25.20;99.90;;;;;;8273895;28;20184;-68
2023/06/26 07:29:27;;;;;;;5.75;3.90;;;25.00;99.90;;;;;;8274238;28;20183;-69
2023/06/26 07:33:28;;;;;;;6.13;3.42;;;25.00;99.90;;;;;;8276588;28;20188;-69
2023/06/26 07:37:30;;;;;;;3.55;3.25;;;24.90;99.90;;;;;;8277458;28;20179;-69
2023/06/26 07:41:31;;;;;;;7.90;7.10;;;24.80;99.90;;;;;;8274992;28;20229;-69
2023/06/26 07:45:32;;;;;;;30.48;21.85;;;24.80;99.90;;;;;;8273616;28;20242;-68
2023/06/26 07:49:33;;;;;;;4.35;3.88;;;25.00;99.90;;;;;;8275783;28;20191;-68
2023/06/26 07:53:34;;;;;;;3.97;3.30;;;24.90;99.90;;;;;;8272635;28;20194;-68
2023/06/26 07:57:36;;;;;;;10.43;8.18;;;24.90;99.90;;;;;;8270798;28;20197;-69
2023/06/26 08:01:40;;;;;;;3.85;3.20;;;25.10;99.90;;;;;;8271213;28;20211;-68
2023/06/26 08:05:41;;;;;;;9.65;6.63;;;25.20;99.90;;;;;;8269642;28;20218;-67
2023/06/26 08:09:45;;;;;;;41.38;26.63;;;25.20;99.90;;;;;;8265642;28;20195;-67
2023/06/26 08:13:46;;;;;;;4.70;4.07;;;25.20;99.90;;;;;;8269384;28;20190;-68
2023/06/26 08:17:48;;;;;;;8.80;6.43;;;25.20;99.90;;;;;;8270595;28;20362;-68
2023/06/26 08:21:49;;;;;;;5.53;3.55;;;25.40;99.90;;;;;;8275905;28;20380;-67
2023/06/26 08:25:50;;;;;;;9.57;6.60;;;25.80;99.90;;;;;;8269921;28;20168;-67
2023/06/26 08:29:50;;;;;;;4.38;3.80;;;26.10;99.90;;;;;;8267264;28;20227;-67
2023/06/26 08:33:52;;;;;;;4.97;3.25;;;26.30;99.90;;;;;;8268190;28;20187;-68
2023/06/26 08:37:54;;;;;;;4.95;4.45;;;26.20;99.90;;;;;;8271775;28;20249;-67
2023/06/26 08:41:55;;;;;;;3.70;3.08;;;26.30;99.90;;;;;;8276514;28;20235;-68
2023/06/26 08:45:57;;;;;;;4.15;3.70;;;26.50;99.90;;;;;;8268686;28;20183;-67
2023/06/26 08:50:13;;;;;;;3.67;3.38;;;26.40;99.90;;;;;;8273884;28;20192;-68
2023/06/26 08:54:17;;;;;;;5.70;3.85;;;26.50;99.90;;;;;;8268298;28;20225;-68
2023/06/26 08:58:18;;;;;;;5.63;4.03;;;26.40;99.90;;;;;;8271625;28;20190;-67
2023/06/26 09:02:20;;;;;;;5.43;4.93;;;26.50;99.90;;;;;;8266113;28;20212;-68
2023/06/26 09:06:22;;;;;;;4.10;3.65;;;26.80;99.90;;;;;;8268428;28;20179;-67
2023/06/26 09:10:23;;;;;;;4.78;4.15;;;26.90;99.90;;;;;;8270504;28;20184;-69
2023/06/26 09:14:24;;;;;;;4.85;3.88;;;27.10;99.90;;;;;;8282689;28;20214;-68
2023/06/26 09:18:26;;;;;;;5.15;3.45;;;27.40;99.90;;;;;;8269316;28;20184;-69
2023/06/26 09:22:27;;;;;;;3.95;3.55;;;27.70;99.90;;;;;;8268993;28;20215;-69
2023/06/26 09:26:28;;;;;;;4.45;4.07;;;27.80;99.90;;;;;;8272053;28;20184;-70
2023/06/26 09:30:34;;;;;;;5.28;3.47;;;27.90;99.90;;;;;;8269442;28;20179;-69
2023/06/26 09:34:35;;;;;;;4.20;3.80;;;28.00;99.90;;;;;;8269986;28;20192;-69
2023/06/26 09:38:38;;;;;;;4.57;4.18;;;28.20;99.90;;;;;;8265764;28;20341;-69
2023/06/26 09:42:39;;;;;;;6.07;3.88;;;28.60;99.90;;;;;;8267150;28;20322;-70
2023/06/26 09:46:40;;;;;;;5.55;4.28;;;28.90;99.90;;;;;;8277072;28;20202;-70
2023/06/26 09:50:42;;;;;;;4.90;3.80;;;29.00;99.90;;;;;;8270115;28;20229;-68
2023/06/26 09:54:46;;;;;;;5.25;4.00;;;29.00;99.90;;;;;;8271863;28;20212;-71
2023/06/26 09:58:48;;;;;;;4.45;4.05;;;29.10;99.90;;;;;;8271027;28;20199;-69
2023/06/26 10:02:49;;;;;;;4.50;3.90;;;29.40;99.90;;;;;;8253127;28;20219;-69
2023/06/26 10:06:53;;;;;;;4.57;3.90;;;29.10;99.90;;;;;;8266241;28;20194;-71
2023/06/26 10:10:55;;;;;;;4.28;3.58;;;29.40;99.90;;;;;;8265242;28;20187;-71
2023/06/26 10:14:57;;;;;;;4.03;3.63;;;29.90;99.90;;;;;;8269923;28;20277;-70
2023/06/26 10:19:06;;;;;;;4.30;3.90;;;30.40;99.90;;;;;;8264794;28;20180;-72
2023/06/26 10:23:08;;;;;;;3.60;3.30;;;30.70;99.90;;;;;;8267162;28;20329;-68
2023/06/26 10:27:17;;;;;;;3.33;3.03;;;31.20;99.90;;;;;;8265857;28;20184;-68
2023/06/26 10:31:26;;;;;;;6.50;3.55;;;31.60;99.90;;;;;;8267352;28;20192;-69
2023/06/26 10:35:27;;;;;;;4.55;3.75;;;31.70;99.90;;;;;;8278789;28;20210;-69
2023/06/26 10:39:46;;;;;;;3.65;3.35;;;32.00;99.90;;;;;;8265833;28;20185;-69
2023/06/26 10:43:50;;;;;;;4.22;3.58;;;32.00;99.90;;;;;;8267755;28;20279;-67
2023/06/26 10:47:54;;;;;;;3.70;3.28;;;32.10;99.90;;;;;;8266469;28;20214;-69
2023/06/26 10:52:03;;;;;;;3.17;2.85;;;32.20;99.90;;;;;;8261686;28;20192;-69
2023/06/26 10:56:06;;;;;;;3.65;3.10;;;32.40;99.90;;;;;;8265237;28;20189;-69
2023/06/26 11:00:14;;;;;;;4.93;3.30;;;32.50;99.90;;;;;;8259580;28;20184;-66
2023/06/26 11:04:16;;;;;;;4.30;3.03;;;32.30;99.90;;;;;;8262264;28;20223;-70
2023/06/26 11:08:19;;;;;;;5.45;3.30;;;32.00;99.90;;;;;;8261415;28;20268;-70
2023/06/26 11:12:42;;;;;;;3.20;2.90;;;32.30;99.90;;;;;;8264998;28;20194;-70
2023/06/26 11:16:43;;;;;;;3.00;2.80;;;32.40;99.90;;;;;;8268609;28;20210;-70
2023/06/26 11:20:44;;;;;;;3.72;3.42;;;32.40;99.90;;;;;;8272380;28;20179;-68
2023/06/26 11:24:46;;;;;;;3.83;3.20;;;32.50;99.90;;;;;;8266642;28;20187;-68
2023/06/26 11:28:51;;;;;;;3.60;3.30;;;32.40;99.90;;;;;;8281710;28;20179;-69
2023/06/26 11:32:52;;;;;;;3.05;2.80;;;32.40;99.90;;;;;;8263910;28;20202;-67
2023/06/26 11:36:56;;;;;;;2.55;2.35;;;32.60;99.90;;;;;;8265284;28;20199;-70
2023/06/26 11:40:59;;;;;;;4.22;2.80;;;32.40;99.90;;;;;;8267073;28;20203;-69
2023/06/26 11:45:01;;;;;;;3.33;3.03;;;32.40;99.90;;;;;;8279405;28;20227;-69
2023/06/26 11:49:07;;;;;;;3.17;2.88;;;32.40;99.90;;;;;;8264530;28;20184;-69
2023/06/26 11:53:08;;;;;;;4.32;2.70;;;32.30;99.90;;;;;;8267830;28;20186;-68
2023/06/26 11:57:13;;;;;;;2.72;2.53;;;31.80;99.90;;;;;;8262838;28;20218;-70
2023/06/26 12:01:22;;;;;;;3.17;2.83;;;31.90;99.90;;;;;;8261749;28;20199;-68
2023/06/26 12:05:23;;;;;;;3.15;2.90;;;32.10;99.90;;;;;;8274191;28;20254;-69
2023/06/26 12:09:26;;;;;;;4.35;2.97;;;32.00;99.90;;;;;;8268537;28;20196;-70
2023/06/26 12:13:27;;;;;;;3.63;3.00;;;32.10;99.90;;;;;;8272701;28;20212;-69
2023/06/26 12:17:30;;;;;;;3.20;2.90;;;32.30;99.90;;;;;;8270342;28;20184;-72
2023/06/26 12:21:37;;;;;;;4.65;3.10;;;32.10;99.90;;;;;;8269814;28;20239;-72
2023/06/26 12:25:39;;;;;;;5.15;3.10;;;32.30;99.90;;;;;;8268442;28;20188;-72
2023/06/26 12:29:46;;;;;;;3.15;2.88;;;32.20;99.90;;;;;;8274355;28;20184;-72
2023/06/26 12:33:48;;;;;;;2.80;2.60;;;32.10;99.90;;;;;;8275814;28;20184;-71
2023/06/26 12:37:49;;;;;;;2.72;2.53;;;31.80;99.90;;;;;;8272860;28;20207;-71
2023/06/26 12:41:59;;;;;;;3.53;2.88;;;31.80;99.90;;;;;;8267848;28;20291;-70
2023/06/26 12:46:01;;;;;;;3.25;2.95;;;31.80;99.90;;;;;;8258499;28;20192;-72
2023/06/26 12:50:05;;;;;;;3.15;2.92;;;31.80;99.90;;;;;;8267020;28;20242;-71
2023/06/26 12:54:07;;;;;;;3.40;3.10;;;31.40;99.90;;;;;;8269399;28;20218;-70
2023/06/26 12:58:08;;;;;;;2.85;2.65;;;31.40;99.90;;;;;;8266928;28;20206;-71
2023/06/26 13:02:11;;;;;;;2.92;2.72;;;31.60;99.90;;;;;;8270332;28;20253;-72
2023/06/26 13:06:13;;;;;;;2.92;2.65;;;31.40;99.90;;;;;;8268369;28;20211;-72
2023/06/26 13:10:14;;;;;;;4.45;2.97;;;31.10;99.90;;;;;;8272263;28;20275;-70
2023/06/26 13:14:16;;;;;;;2.95;2.75;;;30.60;99.90;;;;;;8270185;28;20195;-71
2023/06/26 13:18:17;;;;;;;4.28;2.60;;;30.40;99.90;;;;;;8272874;28;20186;-69
2023/06/26 13:22:18;;;;;;;3.20;2.97;;;30.50;99.90;;;;;;8282631;28;20212;-71
2023/06/26 13:26:21;;;;;;;3.35;3.00;;;30.50;99.90;;;;;;8271986;28;20194;-70
2023/06/26 13:30:26;;;;;;;3.40;3.10;;;30.50;99.90;;;;;;8269770;28;20190;-71
2023/06/26 13:34:28;;;;;;;3.05;2.60;;;30.70;99.90;;;;;;8270306;28;20199;-72
2023/06/26 13:38:29;;;;;;;3.17;2.65;;;31.10;99.90;;;;;;8267267;28;20184;-71
2023/06/26 13:42:30;;;;;;;2.78;2.58;;;31.60;99.90;;;;;;8272576;28;20258;-72
2023/06/26 13:46:37;;;;;;;3.33;2.92;;;31.70;99.90;;;;;;8267343;28;20322;-69
2023/06/26 13:50:39;;;;;;;4.20;2.85;;;31.50;99.90;;;;;;8268880;28;20187;-71
2023/06/26 13:54:40;;;;;;;3.25;2.95;;;31.30;99.90;;;;;;8270338;28;20180;-72
2023/06/26 13:58:41;;;;;;;3.05;2.80;;;31.50;99.90;;;;;;8273804;28;20211;-73
2023/06/26 14:02:42;;;;;;;3.50;3.20;;;31.40;99.90;;;;;;8270021;28;20298;-70
2023/06/26 14:06:45;;;;;;;3.90;3.50;;;31.30;99.90;;;;;;8269733;28;20188;-71
2023/06/26 14:10:46;;;;;;;4.75;3.65;;;31.70;99.90;;;;;;8267440;28;20188;-71
2023/06/26 14:14:47;;;;;;;6.45;3.72;;;31.90;99.90;;;;;;8264299;28;20226;-70
2023/06/26 14:18:48;;;;;;;3.85;3.50;;;31.90;99.90;;;;;;8269369;28;20186;-70
2023/06/26 14:22:49;;;;;;;3.95;3.50;;;31.80;99.90;;;;;;8279673;28;20214;-71
2023/06/26 14:26:50;;;;;;;6.05;3.40;;;31.60;99.90;;;;;;8266832;28;20190;-70
2023/06/26 14:30:51;;;;;;;3.78;3.45;;;31.40;99.90;;;;;;8271875;28;20195;-72
2023/06/26 14:35:02;;;;;;;4.43;3.63;;;31.30;99.90;;;;;;8268736;28;20242;-70
2023/06/26 14:39:03;;;;;;;3.47;3.15;;;31.10;99.90;;;;;;8264531;28;20188;-70
2023/06/26 14:43:04;;;;;;;3.90;3.60;;;30.80;99.90;;;;;;8279867;28;20220;-70
2023/06/26 14:47:05;;;;;;;3.53;3.22;;;30.70;99.90;;;;;;8266771;28;20257;-71
2023/06/26 14:51:06;;;;;;;5.57;3.92;;;30.80;99.90;;;;;;8268543;28;20282;-71
2023/06/26 14:55:08;;;;;;;15.05;11.73;;;30.90;99.90;;;;;;8264712;28;20246;-70
2023/06/26 14:59:08;;;;;;;11.30;9.57;;;31.10;99.90;;;;;;8267573;28;20191;-71
2023/06/26 15:03:10;;;;;;;5.10;4.60;;;31.30;99.90;;;;;;8270985;28;20222;-70
2023/06/26 15:07:10;;;;;;;4.32;3.92;;;31.30;99.90;;;;;;8265340;28;20195;-70
2023/06/26 15:11:12;;;;;;;3.88;3.58;;;31.30;99.90;;;;;;8264368;28;20223;-70
2023/06/26 15:15:13;;;;;;;4.32;3.92;;;31.30;99.90;;;;;;8266965;28;20333;-70
2023/06/26 15:19:14;;;;;;;6.15;4.10;;;31.50;99.90;;;;;;8261611;28;20194;-69
2023/06/26 15:23:15;;;;;;;4.25;3.85;;;31.60;99.90;;;;;;8264449;28;20204;-70
2023/06/26 15:27:16;;;;;;;3.85;3.55;;;31.60;99.90;;;;;;8271987;28;20233;-70
2023/06/26 15:31:17;;;;;;;6.40;3.97;;;31.70;99.90;;;;;;8264495;28;20228;-71
2023/06/26 15:35:18;;;;;;;5.40;3.78;;;31.80;99.90;;;;;;8265758;28;20197;-70
2023/06/26 15:39:22;;;;;;;4.20;3.72;;;31.80;99.90;;;;;;8267997;28;20198;-72
2023/06/26 15:43:23;;;;;;;3.80;3.50;;;31.80;99.90;;;;;;8274267;28;20211;-70
2023/06/26 15:47:24;;;;;;;4.00;3.60;;;31.70;99.90;;;;;;8273221;28;20206;-73
2023/06/26 15:51:25;;;;;;;4.30;3.90;;;31.60;99.90;;;;;;8272739;28;20183;-70
2023/06/26 15:55:26;;;;;;;4.65;3.75;;;31.50;99.90;;;;;;8270085;28;20183;-73
2023/06/26 15:59:27;;;;;;;4.32;3.92;;;31.20;99.90;;;;;;8270508;28;20187;-72
2023/06/26 16:03:28;;;;;;;4.00;3.67;;;31.00;99.90;;;;;;8274481;28;20222;-69
2023/06/26 16:07:30;;;;;;;4.05;3.42;;;30.90;99.90;;;;;;8277758;28;20195;-69
2023/06/26 16:11:31;;;;;;;4.65;3.97;;;30.90;99.90;;;;;;8271540;28;20214;-70
2023/06/26 16:15:34;;;;;;;4.28;3.88;;;31.00;99.90;;;;;;8265349;28;20199;-70
2023/06/26 16:19:35;;;;;;;3.50;3.20;;;31.00;99.90;;;;;;8264795;28;20245;-69
2023/06/26 16:23:37;;;;;;;4.40;4.00;;;30.90;99.90;;;;;;8269810;28;20280;-71
2023/06/26 16:27:37;;;;;;;3.95;3.63;;;30.80;99.90;;;;;;8274826;28;20234;-70
2023/06/26 16:31:39;;;;;;;4.28;3.88;;;30.50;99.90;;;;;;8266064;28;20238;-70
2023/06/26 16:35:40;;;;;;;4.93;3.67;;;30.30;99.90;;;;;;8267722;28;20192;-71
2023/06/26 16:39:41;;;;;;;3.85;3.55;;;30.20;99.90;;;;;;8270606;28;20270;-71
2023/06/26 16:43:45;;;;;;;3.88;3.40;;;30.40;99.90;;;;;;8268380;28;20229;-71
2023/06/26 16:47:46;;;;;;;4.15;3.80;;;30.50;99.90;;;;;;8275732;28;20184;-70
2023/06/26 16:51:48;;;;;;;3.83;3.53;;;30.60;99.90;;;;;;8269682;28;20198;-72
2023/06/26 16:55:49;;;;;;;4.25;3.85;;;30.60;99.90;;;;;;8276119;28;20215;-71
2023/06/26 16:59:50;;;;;;;4.07;3.67;;;30.60;99.90;;;;;;8269030;28;20184;-72
2023/06/26 17:03:51;;;;;;;3.72;3.42;;;30.60;99.90;;;;;;8267986;28;20218;-69
2023/06/26 17:07:52;;;;;;;4.30;3.92;;;30.60;99.90;;;;;;8270300;28;20180;-70
2023/06/26 17:11:54;;;;;;;3.40;3.10;;;30.50;99.90;;;;;;8266717;28;20226;-70
2023/06/26 17:15:55;;;;;;;4.18;3.88;;;30.40;99.90;;;;;;8271964;28;20218;-70
2023/06/26 17:19:56;;;;;;;4.18;3.85;;;30.10;99.90;;;;;;8267345;28;20184;-71
2023/06/26 17:23:57;;;;;;;4.50;4.10;;;29.90;99.90;;;;;;8271412;28;20216;-71
2023/06/26 17:27:58;;;;;;;4.75;4.30;;;29.60;99.90;;;;;;8268095;28;20187;-71
2023/06/26 17:31:59;;;;;;;4.32;3.92;;;29.30;99.90;;;;;;8270690;28;20219;-70
2023/06/26 17:36:00;;;;;;;4.95;4.55;;;29.00;99.90;;;;;;8273776;28;20179;-70
2023/06/26 17:40:07;;;;;;;4.28;3.88;;;28.80;99.90;;;;;;8262386;28;20246;-71
2023/06/26 17:44:12;;;;;;;5.82;4.45;;;28.50;99.90;;;;;;8266776;28;20214;-70
2023/06/26 17:48:13;;;;;;;4.45;4.13;;;28.20;99.90;;;;;;8268295;28;20266;-72
2023/06/26 17:52:14;;;;;;;4.82;4.43;;;27.90;99.90;;;;;;8264395;28;20250;-69
2023/06/26 17:56:15;;;;;;;4.68;4.28;;;27.70;99.90;;;;;;8264952;28;20227;-70
2023/06/26 18:00:17;;;;;;;4.60;4.10;;;27.40;99.90;;;;;;8269243;28;20195;-71
2023/06/26 18:04:18;;;;;;;5.20;4.70;;;27.20;99.90;;;;;;8262748;28;20215;-69
2023/06/26 18:08:19;;;;;;;13.37;4.50;;;27.00;99.90;;;;;;8266484;28;20179;-72
2023/06/26 18:12:23;;;;;;;5.77;4.43;;;25.50;99.90;;;;;;8269936;28;20180;-71
2023/06/26 18:16:24;;;;;;;13.73;4.57;;;24.40;99.90;;;;;;8264778;28;20186;-71
2023/06/26 18:20:25;;;;;;;19.33;6.37;;;23.70;99.90;;;;;;8265179;28;20184;-70
2023/06/26 18:24:26;;;;;;;8.13;5.87;;;22.50;1.00;;;;;;8263723;28;20315;-71
2023/06/26 18:28:29;;;;;;;7.67;5.63;;;20.80;1.00;;;;;;8271375;28;20187;-71
2023/06/26 18:32:30;;;;;;;7.60;6.80;;;20.00;99.90;;;;;;8265833;28;20191;-71
2023/06/26 18:36:33;;;;;;;6.93;5.93;;;19.60;1.00;;;;;;8264043;28;20254;-69
2023/06/26 18:40:35;;;;;;;6.67;6.00;;;19.50;40.10;;;;;;8268121;28;20291;-67
2023/06/26 18:44:36;;;;;;;9.27;6.37;;;19.50;99.90;;;;;;8263845;28;20210;-71
2023/06/26 18:48:37;;;;;;;7.67;6.90;;;19.40;99.90;;;;;;8263472;28;20218;-68
2023/06/26 18:52:41;;;;;;;12.87;8.07;;;19.40;99.90;;;;;;8265758;28;20200;-72
2023/06/26 18:56:42;;;;;;;8.97;7.00;;;19.50;99.90;;;;;;8264110;28;20195;-69
2023/06/26 19:00:44;;;;;;;11.17;8.50;;;19.60;99.90;;;;;;8268302;28;20195;-70
2023/06/26 19:04:45;;;;;;;14.03;9.23;;;19.60;99.90;;;;;;8269360;28;20366;-71
2023/06/26 19:08:46;;;;;;;11.50;9.70;;;19.40;52.30;;;;;;8266947;28;20187;-69
2023/06/26 19:12:48;;;;;;;12.13;10.57;;;19.20;8.00;;;;;;8268996;28;20247;-73
2023/06/26 19:16:49;;;;;;;11.17;10.07;;;19.00;99.90;;;;;;8275610;28;20195;-68
2023/06/26 19:20:50;;;;;;;13.23;10.20;;;18.80;99.90;;;;;;8268741;28;20187;-72
2023/06/26 19:24:51;;;;;;;12.60;10.93;;;18.50;99.90;;;;;;8268536;28;20197;-72
2023/06/26 19:28:52;;;;;;;11.77;10.57;;;18.40;99.90;;;;;;8271256;28;20211;-70
2023/06/26 19:32:53;;;;;;;12.40;11.10;;;18.30;99.90;;;;;;8274235;28;20199;-72
2023/06/26 19:36:55;;;;;;;14.27;11.13;;;18.20;99.90;;;;;;8270462;28;20187;-71
2023/06/26 19:40:56;;;;;;;13.80;12.33;;;18.20;99.90;;;;;;8268332;28;20208;-73
2023/06/26 19:44:57;;;;;;;14.93;13.50;;;18.20;99.90;;;;;;8278433;28;20183;-73
2023/06/26 19:48:58;;;;;;;15.67;13.63;;;18.20;99.90;;;;;;8273841;28;20211;-71
2023/06/26 19:53:00;;;;;;;15.13;13.50;;;18.20;99.90;;;;;;8270069;28;20184;-71
2023/06/26 19:57:01;;;;;;;14.93;13.43;;;18.20;99.90;;;;;;8274233;28;20190;-72
2023/06/26 20:01:03;;;;;;;15.60;13.43;;;18.20;99.90;;;;;;8273407;28;20187;-71
2023/06/26 20:05:04;;;;;;;15.63;14.07;;;18.20;99.90;;;;;;8279475;28;20210;-71
2023/06/26 20:09:06;;;;;;;15.23;13.50;;;18.20;99.90;;;;;;8272446;28;20286;-71
2023/06/26 20:13:08;;;;;;;15.90;13.20;;;18.20;99.90;;;;;;8277818;28;20201;-71
2023/06/26 20:17:09;;;;;;;14.00;12.50;;;18.30;99.90;;;;;;8275550;28;20192;-72
2023/06/26 20:21:11;;;;;;;14.50;11.90;;;18.30;99.90;;;;;;8270438;28;20212;-70
2023/06/26 20:25:15;;;;;;;11.53;10.43;;;18.30;99.90;;;;;;8273990;28;20195;-68
2023/06/26 20:29:16;;;;;;;12.20;10.97;;;18.20;99.90;;;;;;8271155;28;20184;-72
2023/06/26 20:33:20;;;;;;;12.37;10.37;;;18.10;99.90;;;;;;8278612;28;20198;-71
2023/06/26 20:37:21;;;;;;;12.67;11.40;;;18.00;99.90;;;;;;8258707;28;20191;-69
2023/06/26 20:41:23;;;;;;;12.73;11.43;;;18.00;99.90;;;;;;8267911;28;20223;-72
2023/06/26 20:45:25;;;;;;;13.50;11.37;;;18.00;99.90;;;;;;8272121;28;20219;-72
2023/06/26 20:49:27;;;;;;;11.43;10.40;;;17.90;99.90;;;;;;8272117;28;20234;-72
2023/06/26 20:53:29;;;;;;;10.83;9.83;;;17.90;99.90;;;;;;8271670;28;20238;-71
2023/06/26 20:57:33;;;;;;;11.90;10.70;;;17.90;99.90;;;;;;8272299;28;20199;-69